KHOB/HOB METAR and TAF weather

Enter ICAO airport designator
Station Type Date Time Source
KHOB METAR 2022/01/26 08:15 UTC NOAA

KHOB 260815Z AUTO 05014G22KT 10SM OVC022 M01/M11 A3018 RMK AO2


Station Type Date Time Source
KHOB Decoded METAR 2022/01/26 08:15 UTC NOAA

Hobbs / Lea County, NM, United States (KHOB) 32-41N 103-13W
Jan 26, 2022 - 03:15 AM EST / 2022.01.26 0815 UTC
Wind: from the NE (050 degrees) at 16 MPH (14 KT) gusting to 25 MPH (22 KT):0
Visibility: 10 mile(s):0
Sky conditions: overcast
Temperature: 30 F (-1 C)
Windchill: 19 F (-7 C):1
Dew Point: 12 F (-11 C)
Relative Humidity: 46%
Pressure (altimeter): 30.18 in. Hg (1022 hPa)
ob: KHOB 260815Z AUTO 05014G22KT 10SM OVC022 M01/M11 A3018 RMK AO2
cycle: 8

Station Type Date Time Source
KHOB TAF 2022/01/26 06:22 UTC NOAA

TAF KHOB 260520Z 2606/2706 06018G28KT P6SM OVC025
FM261300 05010KT 5SM -FZDZ OVC010
FM261800 06006KT 5SM -SNPL OVC009
FM262200 03006KT P6SM OVC015
FM270200 16006KT P6SM SCT020 SCT250

Example: see airport list